Detall de PIREP

Printer-friendly versionPDF version

[2015/04/06 08:22:00]
Flight IATA:CT1004
Pilot Number:012
Company ICAO:CAT
Aircraft Type:B463/A
PAX:100
Aircraft Registration:PAX
Departing Airport: EGLC
Destination Airport: LEDA
Alternate Airport:LEBL
Online: VATSIM
Route:LYD UM189 DRAKE UL151 SITET UN859 BALAN UL152 MAKOX UN860 GRAUS G23 ALOSU
Flight Level:F290
No Slew and time accel
No pause
Crash detect
Detect pilot in Cockpit between each 30 and 45 minutes
08:22 Zero fuel Weight: 74853 Lbs, Fuel Weight: 20160 Lbs
08:22 VATSIM:EGLC 060750Z 25006KT CAVOK 08/05 Q1031
08:22 VATSIM:LEDA 051630Z 23001KT CAVOK 19/07 Q1010
08:23 EASTER CHARTER
08:23 Parking Brakes off
08:33 Take-off
08:33 Take off Weight: 94458 Lbs
08:33 Wind: 251º @ 006 Knots Heading: 271º
08:33 POS N51º 30´ 19´´ E000º 02´ 42´´
08:33 Flaps:2 at 148 Knots
08:33 Gear Up: 149 Knots
08:34 Flaps:1 at 169 Knots
08:34 Flaps:0 at 173 Knots
08:46 TOC
08:46 Fuel Weight: 17410 Lb
08:48 Wind:019º@044 Knots Heading: 198º Ground Speed: 452 Knots Altitude 29517 ft
09:03 Wind:024º@033 Knots Heading: 162º Ground Speed: 440 Knots Altitude 29504 ft
09:18 Wind:357º@020 Knots Heading: 182º Ground Speed: 436 Knots Altitude 29455 ft
09:33 Wind:309º@020 Knots Heading: 189º Ground Speed: 427 Knots Altitude 29324 ft
09:48 Wind:283º@011 Knots Heading: 192º Ground Speed: 380 Knots Altitude 29251 ft
09:48 TOD
09:48 Fuel Weight: 11465 Lb
10:03 Wind:118º@010 Knots Heading: 188º Ground Speed: 267 Knots Altitude 9202 ft
10:08 Flaps:1 at 217 Knots
10:13 Flaps:2 at 202 Knots
10:13 Gear Down: 196 Knots
10:13 Flaps:3 at 181 Knots
10:14 Flaps:4 at 151 Knots
10:15 TouchDown:Rate -174 ft/min Speed: 131 Knots
10:16 Flaps:0 at 56 Knots
10:16 VATSIM:LEDA 051630Z 23001KT CAVOK 19/07 Q1010
10:16 Land
10:16 Wind:076º@005 Knots
10:16 Heading:269º
10:16 Flight Duration: 01:43
10:16 Landing Weight: 84911 Lbs
10:16 POS N41º 43´ 52´´ E000º 31´ 51´´
10:18 Parking brakes on
10:18 Block to Block Duration: 01:55
10:18 Final Fuel: 9949 Lbls
10:18 Spent Fuel: 10211 Lbls
10:18 Flight Length: 648 NM
10:18 TOD Land Length: 127 NM

Exportar CSV

Powered by Drupal - Modified by Danger4k